• Join FlightAware (Why Join?)
  • Login
  • US Flag 
04:41AM EDT


 

Airport Tracker/Info


-or-


 

Live Flight TrackerFlight Track Log ✈ UAL335 ✈ 20-Apr-2013 ✈ KTPA - KEWR

Flight Track Log - Related Links

Times and Time Zones

All times are in EDT time to prevent confusion due to time zone crossing. See the UAL335 flight status page for this flight to view local times or setup timezone preferences in your user account.

Time Position Orientation Groundspeed Altitude Reporting Facility
EDT Latitude Longitude Course Direction KTS MPH feet Rate Location/Type
06:08PM 28.0000 -82.5333 354° North 140 161 900  Level Tampa TRACON
06:09PM 28.0333 -82.5333 360° North 178 205 1,800 2,040 Climbing Tampa TRACON
06:11PM 28.3521 -82.5667 North  Level FlightAware Approximate
06:11PM 28.1264 -82.5303 North 251 289 5,900  Level Jacksonville Center
06:12PM 28.4823 -82.5766 355° North  Level FlightAware Approximate
06:12PM 28.2078 -82.5369 356° North 257 296 9,400  Level Jacksonville Center
06:13PM 28.6125 -82.5833 North  Level FlightAware Approximate
06:13PM 28.2975 -82.5483 354° North 286 329 11,800  Level Jacksonville Center
06:14PM 28.7393 -82.5924 354° North  Level FlightAware Approximate
06:14PM 28.4083 -82.5622 354° North 339 390 14,200  Level Jacksonville Center
06:15PM 28.5253 -82.5736 355° North 392 451 17,700 2,820 Climbing Jacksonville Center
06:16PM 28.6461 -82.5875 354° North 417 480 19,900 2,100 Climbing Jacksonville Center
06:17PM 28.7611 -82.6014 354° North 440 506 22,000 2,160 Climbing Jacksonville Center
06:18PM 28.8989 -82.6222 352° North 468 539 24,300 2,400 Climbing Jacksonville Center
06:19PM 29.0367 -82.6383 354° North 491 565 26,800 2,520 Climbing Jacksonville Center
06:20PM 29.1639 -82.6572 353° North 484 557 29,400 1,560 Climbing Jacksonville Center
06:21PM 29.2914 -82.6736 354° North 465 535 30,000 480 Climbing Jacksonville Center
06:22PM 29.4272 -82.6922 353° North 465 535 30,400 600 Climbing Jacksonville Center
06:23PM 29.5692 -82.6944 359° North 485 558 31,300 900 Climbing Jacksonville Center
06:24PM 29.7111 -82.6964 359° North 497 572 32,200 780 Climbing Jacksonville Center
06:25PM 29.8572 -82.6939 North 504 580 32,900 960 Climbing Jacksonville Center
06:26PM 30.0011 -82.6936 360° North 515 593 34,200 960 Climbing Jacksonville Center
06:27PM 30.1411 -82.6861 North 510 587 34,900 360 Climbing Jacksonville Center
06:28PM 30.2789 -82.6858 360° North 510 587 35,000  Climbing Jacksonville Center
06:29PM 30.4189 -82.6831 North 500 575 35,000  Level Jacksonville Center
06:30PM 30.5586 -82.6586 North 500 575 35,000  Level Jacksonville Center
06:31PM 30.6964 -82.5978 21° North 505 581 35,000  Level Jacksonville Center
06:32PM 30.8319 -82.5319 23° Northeast 516 594 35,000  Level Jacksonville Center
06:33PM 30.9694 -82.4636 23° Northeast 529 609 35,000  Level Jacksonville Center
06:34PM 31.1069 -82.3975 22° Northeast 529 609 35,000  Level Jacksonville Center
06:35PM 31.2425 -82.3336 22° Northeast 529 609 35,000  Level Jacksonville Center
06:36PM 31.3944 -82.2597 23° Northeast 529 609 35,000  Level Jacksonville Center
06:37PM 31.5319 -82.1881 24° Northeast 529 609 35,000  Level Jacksonville Center
06:38PM 31.6528 -82.1286 23° Northeast 527 606 35,000  Level Jacksonville Center
06:39PM 31.8089 -82.0517 23° Northeast 527 606 35,000  Level Jacksonville Center
06:40PM 31.9442 -81.9867 22° Northeast 535 616 35,000  Level Jacksonville Center
06:41PM 32.0711 -81.9242 23° Northeast 535 616 35,000  Level Jacksonville Center
06:42PM 32.2250 -81.8514 22° Northeast 536 617 35,000  Level Jacksonville Center
06:43PM 32.3622 -81.7883 21° North 531 611 35,000  Level Jacksonville Center
06:44PM 32.4869 -81.7253 23° Northeast 531 611 35,000  Level Jacksonville Center
06:45PM 32.6406 -81.6517 22° Northeast 536 617 35,000  Level Jacksonville Center
06:46PM 32.7672 -81.5906 22° Northeast 536 617 35,000  Level Jacksonville Center
06:47PM 32.9044 -81.5244 22° Northeast 531 611 35,000  Level Jacksonville Center
06:48PM 33.0392 -81.4381 28° Northeast 531 611 35,000  Level Jacksonville Center
06:49PM 33.1653 -81.3292 36° Northeast 542 624 35,000  Level Jacksonville Center
06:50PM 33.2892 -81.2278 34° Northeast 547 629 35,000  Level Jacksonville Center
06:51PM 33.4128 -81.1208 36° Northeast 547 629 35,000  Level Jacksonville Center
06:52PM 33.5386 -81.0136 35° Northeast 552 635 35,000  Level Jacksonville Center
06:53PM 33.6644 -80.9086 35° Northeast 552 635 35,000  Level Jacksonville Center
06:54PM 33.7878 -80.8036 35° Northeast 552 635 35,000  Level Jacksonville Center
06:55PM 33.9133 -80.6981 35° Northeast 552 635 35,000  Level Jacksonville Center
06:56PM 34.0386 -80.5869 36° Northeast 557 641 35,000  Level Jacksonville Center
06:57PM 34.1761 -80.4703 35° Northeast 557 641 35,000  Level Jacksonville Center
06:58PM 34.3033 -80.3614 35° Northeast 557 641 35,000  Level Jacksonville Center
06:59PM 34.4286 -80.2569 35° Northeast 557 641 35,000  Level Jacksonville Center
07:01PM 34.7169 -79.9908 37° Northeast 568 654 35,000  Level Washington Center
07:02PM 34.8461 -79.8814 35° Northeast 563 648 35,000  Level Washington Center
07:03PM 34.9731 -79.7717 35° Northeast 563 648 35,000  Level Washington Center
07:04PM 35.1019 -79.6589 36° Northeast 563 648 35,000  Level Washington Center
07:05PM 35.2328 -79.5536 33° Northeast 563 648 35,000  Level Washington Center
07:06PM 35.3653 -79.4583 30° Northeast 556 640 35,000  Level Washington Center
07:07PM 35.5022 -79.3578 31° Northeast 562 647 35,000  Level Washington Center
07:08PM 35.6325 -79.2617 31° Northeast 562 647 35,000  Level Washington Center
07:09PM 35.7519 -79.1725 31° Northeast 562 647 35,000  Level Washington Center
07:10PM 35.8883 -79.0736 30° Northeast 562 647 35,000  Level Washington Center
07:11PM 36.0247 -78.9744 30° Northeast 567 652 35,000  Level Washington Center
07:12PM 36.1592 -78.8722 32° Northeast 572 658 35,000  Level Washington Center
07:13PM 36.2953 -78.7747 30° Northeast 566 651 35,000  Level Washington Center
07:14PM 36.4317 -78.6719 31° Northeast 571 657 35,000 -360 Level Washington Center
07:15PM 36.5697 -78.5661 32° Northeast 571 657 34,300 -540 Descending Washington Center
07:16PM 36.7208 -78.4500 32° Northeast 571 657 34,000 -180 Descending Washington Center
07:17PM 36.8608 -78.3461 31° Northeast 571 657 34,000  Level Washington Center
07:18PM 36.9883 -78.2442 33° Northeast 578 665 34,000  Level Washington Center
07:19PM 37.1392 -78.1269 32° Northeast 588 677 34,000  Level Washington Center
07:20PM 37.2811 -78.0219 30° Northeast 588 677 34,000  Level Washington Center
07:21PM 37.4208 -77.9139 32° Northeast 588 677 34,000  Level Washington Center
07:22PM 37.5606 -77.8003 33° Northeast 593 682 34,000  Level Washington Center
07:23PM 37.6942 -77.6783 36° Northeast 598 688 34,000  Level Washington Center
07:24PM 37.8297 -77.5583 35° Northeast 598 688 34,000  Level Washington Center
07:25PM 37.9653 -77.4328 36° Northeast 598 688 34,000  Level Washington Center
07:26PM 38.0983 -77.3147 35° Northeast 593 682 34,000  Level Washington Center
07:27PM 38.2314 -77.1883 37° Northeast 593 682 34,000 -120 Level Washington Center
07:28PM 38.3644 -77.0639 36° Northeast 593 682 33,800 -660 Descending Washington Center
07:29PM 38.5014 -76.9367 36° Northeast 599 689 32,700 -900 Descending Washington Center
07:30PM 38.6342 -76.8117 36° Northeast 599 689 32,000 -360 Descending Washington Center
07:31PM 38.7561 -76.6831 39° Northeast 614 707 32,000  Level Washington Center
07:32PM 38.8806 -76.5408 42° Northeast 614 707 32,000 -660 Level Washington Center
07:33PM 39.0067 -76.3956 42° Northeast 604 695 30,700 -1,500 Descending Washington Center
07:34PM 39.1242 -76.2578 42° Northeast 593 682 29,000 -1,800 Descending Washington Center
07:35PM 39.2414 -76.1250 41° Northeast 572 658 27,200 -1,080 Descending Washington Center
07:36PM 39.3525 -75.9969 42° Northeast 551 634 26,900 -660 Descending Washington Center
07:37PM 39.4611 -75.8683 42° Northeast 536 617 25,900 -1,800 Descending Washington Center
07:38PM 39.5675 -75.7422 42° Northeast 526 605 23,400 -2,400 Descending Washington Center
07:39PM 39.6697 -75.6186 43° Northeast 513 590 21,200 -2,160 Descending Washington Center
07:40PM 39.7678 -75.5025 42° Northeast 491 565 19,100 -2,100 Descending Washington Center
07:41PM 39.8614 -75.3914 42° Northeast 448 516 17,100 -2,100 Descending Washington Center
07:42PM 39.9589 -75.2719 43° Northeast 448 516 15,000 -2,100 Descending Washington Center
07:43PM 40.0419 -75.1686 44° Northeast 435 501 13,000 -1,920 Descending Washington Center
07:44PM 40.1250 -75.0678 43° Northeast 416 479 11,200 -1,500 Descending Washington Center
07:44PM 40.1667 -75.0167 43° Northeast 374 430 10,800 -900 Descending New York TRACON
07:45PM 40.2167 -74.9500 46° Northeast 327 376 10,000 -1,320 Descending New York TRACON
07:46PM 40.2833 -74.8667 44° Northeast 311 358 8,200 -960 Descending New York TRACON
07:47PM 40.3500 -74.7833 44° Northeast 277 319 8,000 -480 Descending New York TRACON
07:48PM 40.4000 -74.7167 45° Northeast 283 326 7,400 -780 Descending New York TRACON
07:49PM 40.4500 -74.6667 37° Northeast 270 311 6,600 -720 Descending New York TRACON
07:50PM 40.5333 -74.6333 17° North 262 302 6,000 -300 Descending New York TRACON
07:51PM 40.6000 -74.6167 11° North 260 299 6,000  Level New York TRACON
07:52PM 40.6667 -74.6000 11° North 261 300 6,000 -60 Level New York TRACON
07:53PM 40.7333 -74.5667 21° North 273 314 5,900 -480 Descending New York TRACON
07:54PM 40.8000 -74.4833 43° Northeast 268 308 5,100 -480 Descending New York TRACON
07:55PM 40.8500 -74.4333 37° Northeast 274 315 5,000 -60 Descending New York TRACON
07:56PM 40.8833 -74.3500 62° Northeast 273 314 5,000 -300 Level New York TRACON
07:57PM 40.9167 -74.2500 66° East 273 314 4,400 -540 Descending New York TRACON
07:58PM 40.9000 -74.1833 108° East 249 287 4,000 -480 Descending New York TRACON
07:59PM 40.8667 -74.1167 123° Southeast 202 232 3,600 -720 Descending New York TRACON
08:00PM 40.8333 -74.0833 143° Southeast 181 208 2,600 -1,020 Descending New York TRACON